createdAt,value
2019-04-06T00:01:12.456Z,9.54
2019-04-06T00:03:39.954Z,9.57
2019-04-06T00:06:07.474Z,9.57
2019-04-06T00:08:34.998Z,9.53
2019-04-06T00:11:02.533Z,9.53
2019-04-06T00:13:30.048Z,9.54
2019-04-06T00:15:57.590Z,9.47
2019-04-06T00:18:25.074Z,9.52
2019-04-06T00:20:52.578Z,9.56
2019-04-06T00:23:20.097Z,9.51
2019-04-06T00:25:47.622Z,9.55
2019-04-06T00:28:15.135Z,9.50
2019-04-06T00:30:45.260Z,9.53
2019-04-06T00:33:14.344Z,9.51
2019-04-06T00:35:41.856Z,9.46
2019-04-06T00:38:09.432Z,9.46
2019-04-06T00:40:36.953Z,9.41
2019-04-06T00:43:04.448Z,9.49
2019-04-06T00:45:31.959Z,9.51
2019-04-06T00:48:00.242Z,9.51
2019-04-06T00:50:27.858Z,9.44
2019-04-06T00:52:55.363Z,9.53
2019-04-06T00:55:22.887Z,9.52
2019-04-06T00:57:50.371Z,9.50
2019-04-06T01:00:17.894Z,9.48
2019-04-06T01:02:45.576Z,9.46
2019-04-06T01:05:13.616Z,9.55
2019-04-06T01:07:41.134Z,9.49
2019-04-06T01:10:08.633Z,9.50
2019-04-06T01:12:36.171Z,9.57
2019-04-06T01:15:03.656Z,9.53
2019-04-06T01:17:31.188Z,9.56
2019-04-06T01:19:58.705Z,9.57
2019-04-06T01:22:26.203Z,9.60
2019-04-06T01:24:53.721Z,9.62
2019-04-06T01:27:21.238Z,9.69
2019-04-06T01:29:48.902Z,9.67
2019-04-06T01:32:16.414Z,9.66
2019-04-06T01:34:44.165Z,9.69
2019-04-06T01:37:11.646Z,9.71
2019-04-06T01:39:39.133Z,9.67
2019-04-06T01:42:06.662Z,9.75
2019-04-06T01:44:34.291Z,9.77
2019-04-06T01:47:01.884Z,9.80
2019-04-06T01:49:29.456Z,9.80
2019-04-06T01:51:56.944Z,9.84
2019-04-06T01:54:24.469Z,9.74
2019-04-06T01:56:51.964Z,9.84
2019-04-06T01:59:19.502Z,9.82
2019-04-06T02:01:56.932Z,9.88
2019-04-06T02:04:24.436Z,9.87
2019-04-06T02:06:51.963Z,9.88
2019-04-06T02:09:19.496Z,9.88
2019-04-06T02:11:46.977Z,9.90
2019-04-06T02:14:15.321Z,9.89
2019-04-06T02:16:42.798Z,9.87
2019-04-06T02:19:10.273Z,9.81
2019-04-06T02:21:37.790Z,9.82
2019-04-06T02:24:05.276Z,9.80
2019-04-06T02:26:32.781Z,9.79
2019-04-06T02:29:00.252Z,9.78
2019-04-06T02:31:42.627Z,9.74
2019-04-06T02:34:25.008Z,9.74
2019-04-06T02:37:13.288Z,9.70
2019-04-06T02:39:55.647Z,9.70
2019-04-06T02:42:33.049Z,9.68
2019-04-06T02:45:02.208Z,9.70
2019-04-06T02:47:29.772Z,9.68
2019-04-06T02:49:57.252Z,9.69
2019-04-06T02:52:24.771Z,9.71
2019-04-06T02:54:52.262Z,9.64
2019-04-06T02:57:19.864Z,9.61
2019-04-06T02:59:47.304Z,9.65
2019-04-06T03:02:14.894Z,9.66
2019-04-06T03:04:42.289Z,9.66
2019-04-06T03:07:09.904Z,9.67
2019-04-06T03:09:37.325Z,9.69
2019-04-06T03:12:04.849Z,9.71
2019-04-06T03:14:37.194Z,9.72
2019-04-06T03:17:04.683Z,9.72
2019-04-06T03:19:32.218Z,9.75
2019-04-06T03:21:59.922Z,9.79
2019-04-06T03:24:27.316Z,9.81
2019-04-06T03:27:02.018Z,9.82
2019-04-06T03:29:22.406Z,9.86
2019-04-06T03:31:49.910Z,9.88
2019-04-06T03:34:21.209Z,9.91
2019-04-06T03:36:45.133Z,9.95
2019-04-06T03:39:12.618Z,10.00
2019-04-06T03:41:40.097Z,10.01
2019-04-06T03:44:07.587Z,10.02
2019-04-06T03:46:35.114Z,10.06
2019-04-06T03:49:02.630Z,10.11
2019-04-06T03:51:30.107Z,10.05
2019-04-06T03:53:58.445Z,10.15
2019-04-06T03:56:25.923Z,10.11
2019-04-06T03:58:53.404Z,9.86
2019-04-06T04:01:20.903Z,10.05
2019-04-06T04:03:48.362Z,10.10
2019-04-06T04:06:15.900Z,10.11
2019-04-06T04:08:43.354Z,10.14
2019-04-06T04:11:10.820Z,10.17
2019-04-06T04:13:38.256Z,10.15
2019-04-06T04:16:05.723Z,10.16
2019-04-06T04:18:33.181Z,10.17
2019-04-06T04:21:00.653Z,10.12
2019-04-06T04:23:28.103Z,10.15
2019-04-06T04:25:55.582Z,10.10
2019-04-06T04:28:23.040Z,10.07
2019-04-06T04:30:50.707Z,10.08
2019-04-06T04:33:18.687Z,10.07
2019-04-06T04:35:46.155Z,10.12
2019-04-06T04:38:13.595Z,10.14
2019-04-06T04:40:41.189Z,10.11
2019-04-06T04:43:08.583Z,10.11
2019-04-06T04:45:36.044Z,10.12
2019-04-06T04:48:03.498Z,10.13
2019-04-06T04:50:32.342Z,10.14
2019-04-06T04:52:59.878Z,10.19
2019-04-06T04:55:27.311Z,10.18
2019-04-06T04:57:54.874Z,10.10
2019-04-06T05:00:22.306Z,10.08
2019-04-06T05:02:49.789Z,10.19
2019-04-06T05:05:17.286Z,10.19
2019-04-06T05:07:45.683Z,10.18
2019-04-06T05:10:13.172Z,10.17
2019-04-06T05:12:40.657Z,10.05
2019-04-06T05:15:09.073Z,10.06
2019-04-06T05:17:36.567Z,10.14
2019-04-06T05:20:03.995Z,10.20
2019-04-06T05:22:31.530Z,10.23
2019-04-06T05:24:58.982Z,10.24
2019-04-06T05:27:26.420Z,10.25
2019-04-06T05:29:53.866Z,10.28
2019-04-06T05:32:21.341Z,10.29
2019-04-06T05:34:49.871Z,10.33
2019-04-06T05:37:17.363Z,10.31
2019-04-06T05:39:44.854Z,10.28
2019-04-06T05:42:12.289Z,10.29
2019-04-06T05:44:39.736Z,10.34
2019-04-06T05:47:07.233Z,10.33
2019-04-06T05:49:34.681Z,10.30
2019-04-06T05:52:02.148Z,10.33
2019-04-06T05:54:29.579Z,10.34
2019-04-06T05:56:57.263Z,10.35
2019-04-06T05:59:24.557Z,10.38
2019-04-06T06:01:52.019Z,10.37
2019-04-06T06:04:20.403Z,10.41
2019-04-06T06:06:47.966Z,10.43
2019-04-06T06:09:16.526Z,10.41
2019-04-06T06:11:43.862Z,10.41
2019-04-06T06:14:11.397Z,10.40
2019-04-06T06:16:38.858Z,10.41
2019-04-06T06:19:06.332Z,10.42
2019-04-06T06:21:33.815Z,10.43
2019-04-06T06:24:01.303Z,10.45
2019-04-06T06:26:28.972Z,10.47
2019-04-06T06:28:56.272Z,10.48
2019-04-06T06:31:23.793Z,10.50
2019-04-06T06:33:51.292Z,10.52
2019-04-06T06:36:18.803Z,10.54
2019-04-06T06:38:46.288Z,10.55
2019-04-06T06:41:13.717Z,10.56
2019-04-06T06:43:41.222Z,10.58
2019-04-06T06:46:08.842Z,10.60
2019-04-06T06:48:36.202Z,10.62
2019-04-06T06:51:03.743Z,10.62
2019-04-06T06:53:32.405Z,10.68
2019-04-06T06:55:59.789Z,10.67
2019-04-06T06:58:27.182Z,10.68
2019-04-06T07:00:54.671Z,10.70
2019-04-06T07:03:22.122Z,10.71
2019-04-06T07:05:49.782Z,10.71
2019-04-06T07:08:17.247Z,10.71
2019-04-06T07:10:44.630Z,10.69
2019-04-06T07:13:12.117Z,10.70
2019-04-06T07:15:39.579Z,10.68
2019-04-06T07:18:07.074Z,10.72
2019-04-06T07:20:34.574Z,10.73
2019-04-06T07:23:02.013Z,10.77
2019-04-06T07:25:29.476Z,10.80
2019-04-06T07:27:56.958Z,10.80
2019-04-06T07:30:24.420Z,10.85
2019-04-06T07:32:52.051Z,10.86
2019-04-06T07:35:19.506Z,10.91
2019-04-06T07:37:47.032Z,10.89
2019-04-06T07:40:14.505Z,10.91
2019-04-06T07:42:41.960Z,10.97
2019-04-06T07:45:09.435Z,10.99
2019-04-06T07:47:36.973Z,11.01
2019-04-06T07:50:06.212Z,11.04
2019-04-06T07:52:33.734Z,11.06
2019-04-06T07:55:01.308Z,11.07
2019-04-06T07:57:28.738Z,11.08
2019-04-06T07:59:56.187Z,11.11
2019-04-06T08:02:23.661Z,11.15
2019-04-06T08:04:51.183Z,11.19
2019-04-06T08:07:18.728Z,11.20
2019-04-06T08:09:46.565Z,11.25
2019-04-06T08:12:13.768Z,11.30
2019-04-06T08:14:41.268Z,11.30
2019-04-06T08:17:08.737Z,11.33
2019-04-06T08:19:36.426Z,11.38
2019-04-06T08:22:03.806Z,11.41
2019-04-06T08:24:31.276Z,11.43
2019-04-06T08:26:58.775Z,11.48
2019-04-06T08:29:26.255Z,11.51
2019-04-06T08:31:53.749Z,11.49
2019-04-06T08:34:21.497Z,11.52
2019-04-06T08:36:48.916Z,11.59
2019-04-06T08:39:16.233Z,11.61
2019-04-06T08:41:43.695Z,11.64
2019-04-06T08:44:11.224Z,11.69
2019-04-06T08:46:38.687Z,11.70
2019-04-06T08:49:06.206Z,11.74
2019-04-06T08:51:33.716Z,11.76
2019-04-06T08:54:01.194Z,11.79
2019-04-06T08:56:28.853Z,11.82
2019-04-06T08:58:56.178Z,11.84
2019-04-06T09:01:24.710Z,11.84
2019-04-06T09:03:52.208Z,11.90
2019-04-06T09:06:19.701Z,11.94
2019-04-06T09:08:47.169Z,11.96
2019-04-06T09:11:14.696Z,12.00
2019-04-06T09:13:42.153Z,12.03
2019-04-06T09:16:09.730Z,12.06
2019-04-06T09:18:37.207Z,12.07
2019-04-06T09:21:04.597Z,12.09
2019-04-06T09:23:32.648Z,12.10
2019-04-06T09:26:00.149Z,12.15
2019-04-06T09:28:27.629Z,12.17
2019-04-06T09:30:55.113Z,12.18
2019-04-06T09:33:22.623Z,12.21
2019-04-06T09:35:50.146Z,12.21
2019-04-06T09:38:19.742Z,12.24
2019-04-06T09:40:47.261Z,12.30
2019-04-06T09:43:14.543Z,12.32
2019-04-06T09:45:57.221Z,12.30
2019-04-06T09:48:28.477Z,12.39
2019-04-06T09:51:10.850Z,12.44
2019-04-06T09:53:44.072Z,12.44
2019-04-06T09:56:17.218Z,12.49
2019-04-06T09:59:00.405Z,12.51
2019-04-06T10:01:43.688Z,12.52
2019-04-06T10:04:17.671Z,12.51
2019-04-06T10:06:44.942Z,12.49
2019-04-06T10:09:14.350Z,12.45
2019-04-06T10:11:43.702Z,12.45
2019-04-06T10:14:13.054Z,12.44
2019-04-06T10:16:40.541Z,12.42
2019-04-06T10:19:23.148Z,12.44
2019-04-06T10:22:00.830Z,12.47
2019-04-06T10:24:29.595Z,12.50
2019-04-06T10:27:11.782Z,12.51
2019-04-06T10:29:48.819Z,12.54
2019-04-06T10:32:20.138Z,12.62
2019-04-06T10:34:51.079Z,12.60
2019-04-06T10:37:24.058Z,12.68
2019-04-06T10:39:53.097Z,12.76
2019-04-06T10:42:28.540Z,12.83
2019-04-06T10:44:58.435Z,12.85
2019-04-06T10:47:27.779Z,12.85
2019-04-06T10:50:14.049Z,12.99
2019-04-06T10:53:01.331Z,13.05
2019-04-06T10:55:28.856Z,13.13
2019-04-06T10:58:00.219Z,13.20
2019-04-06T11:00:44.123Z,13.20
2019-04-06T11:03:23.306Z,13.30
2019-04-06T11:06:06.440Z,13.40
2019-04-06T11:08:39.404Z,13.44
2019-04-06T11:11:21.652Z,13.45
2019-04-06T11:13:54.870Z,13.53
2019-04-06T11:16:26.968Z,13.60
2019-04-06T11:19:11.228Z,13.65
2019-04-06T11:21:41.485Z,13.64
2019-04-06T11:24:12.915Z,13.64
2019-04-06T11:26:40.372Z,13.64
2019-04-06T11:29:09.527Z,13.65
2019-04-06T11:31:41.272Z,13.65
2019-04-06T11:34:12.554Z,13.68
2019-04-06T11:36:58.290Z,13.79
2019-04-06T11:39:26.592Z,13.83
2019-04-06T11:42:13.853Z,13.88
2019-04-06T11:44:41.572Z,13.90
2019-04-06T11:47:21.600Z,13.89
2019-04-06T11:50:04.521Z,13.99
2019-04-06T11:52:37.623Z,14.05
2019-04-06T11:55:09.642Z,14.10
2019-04-06T11:57:37.522Z,14.13
2019-04-06T12:00:05.977Z,14.12
2019-04-06T12:02:33.939Z,14.16
2019-04-06T12:05:02.798Z,14.20
2019-04-06T12:07:39.011Z,14.25
2019-04-06T12:10:13.110Z,14.32
2019-04-06T12:12:42.018Z,14.39
2019-04-06T12:15:26.267Z,14.47
2019-04-06T12:17:59.403Z,14.49
2019-04-06T12:20:33.481Z,14.55
2019-04-06T12:23:03.849Z,14.50
2019-04-06T12:25:35.997Z,14.58
2019-04-06T12:28:07.527Z,14.63
2019-04-06T12:30:42.474Z,14.65
2019-04-06T12:33:30.351Z,14.61
2019-04-06T12:35:58.864Z,14.69
2019-04-06T12:38:28.055Z,14.68
2019-04-06T12:41:16.313Z,14.68
2019-04-06T12:43:49.325Z,14.72
2019-04-06T12:46:18.719Z,14.75
2019-04-06T12:48:54.797Z,14.74
2019-04-06T12:51:22.958Z,14.81
2019-04-06T12:53:52.505Z,14.82
2019-04-06T12:56:35.495Z,14.78
2019-04-06T12:59:17.736Z,14.86
2019-04-06T13:02:00.385Z,14.86
2019-04-06T13:04:42.718Z,14.90
2019-04-06T13:07:27.947Z,14.99
2019-04-06T13:09:56.450Z,15.04
2019-04-06T13:12:24.514Z,15.10
2019-04-06T13:14:53.245Z,15.14
2019-04-06T13:17:21.341Z,15.27
2019-04-06T13:19:51.527Z,15.27
2019-04-06T13:22:25.158Z,15.24
2019-04-06T13:24:58.442Z,15.29
2019-04-06T13:27:26.819Z,15.39
2019-04-06T13:29:54.434Z,15.46
2019-04-06T13:32:24.269Z,15.51
2019-04-06T13:35:06.803Z,15.59
2019-04-06T13:37:37.378Z,15.71
2019-04-06T13:40:22.567Z,15.73
2019-04-06T13:42:51.473Z,15.80
2019-04-06T13:45:33.831Z,15.80
2019-04-06T13:48:02.391Z,15.78
2019-04-06T13:50:30.115Z,15.73
2019-04-06T13:53:16.290Z,15.70
2019-04-06T13:55:59.709Z,15.71
2019-04-06T13:58:26.888Z,15.67
2019-04-06T14:00:56.860Z,15.64
2019-04-06T14:03:27.269Z,15.68
2019-04-06T14:05:57.019Z,15.63
2019-04-06T14:08:27.092Z,15.65
2019-04-06T14:10:54.538Z,15.69
2019-04-06T14:13:22.856Z,15.72
2019-04-06T14:15:59.132Z,15.76
2019-04-06T14:18:33.510Z,15.83
2019-04-06T14:21:03.383Z,15.89
2019-04-06T14:23:34.352Z,15.86
2019-04-06T14:26:02.212Z,15.89
2019-04-06T14:28:29.662Z,15.93
2019-04-06T14:31:02.918Z,16.08
2019-04-06T14:33:36.471Z,16.18
2019-04-06T14:36:03.960Z,16.29
2019-04-06T14:38:33.373Z,16.38
2019-04-06T14:41:01.646Z,16.42
2019-04-06T14:43:45.800Z,16.34
2019-04-06T14:46:13.249Z,16.41
2019-04-06T14:48:44.587Z,16.32
2019-04-06T14:51:17.697Z,16.22
2019-04-06T14:54:00.044Z,16.23
2019-04-06T14:56:30.284Z,16.18
2019-04-06T14:58:58.178Z,16.19
2019-04-06T15:01:41.514Z,16.21
2019-04-06T15:04:09.490Z,16.22
2019-04-06T15:06:49.759Z,16.28
2019-04-06T15:09:17.982Z,16.31
2019-04-06T15:11:51.480Z,16.29
2019-04-06T15:14:36.367Z,16.39
2019-04-06T15:17:05.660Z,16.42
2019-04-06T15:19:36.695Z,16.48
2019-04-06T15:22:04.385Z,16.50
2019-04-06T15:24:37.417Z,16.51
2019-04-06T15:27:11.402Z,16.53
2019-04-06T15:29:42.137Z,16.59
2019-04-06T15:32:15.522Z,16.60
2019-04-06T15:34:48.211Z,16.62
2019-04-06T15:37:20.909Z,16.63
2019-04-06T15:39:54.677Z,16.64
2019-04-06T15:42:24.535Z,16.71
2019-04-06T15:44:57.473Z,16.81
2019-04-06T15:47:41.963Z,16.80
2019-04-06T15:50:14.871Z,16.88
2019-04-06T15:52:42.331Z,16.92
2019-04-06T15:55:28.352Z,16.90
2019-04-06T15:58:11.763Z,16.93
2019-04-06T16:00:39.906Z,16.90
2019-04-06T16:03:11.878Z,16.97
2019-04-06T16:05:43.934Z,17.07
2019-04-06T16:08:21.315Z,17.05
2019-04-06T16:10:55.438Z,17.18
2019-04-06T16:13:29.159Z,17.23
2019-04-06T16:16:06.164Z,17.22
2019-04-06T16:18:33.672Z,17.24
2019-04-06T16:21:02.824Z,17.25
2019-04-06T16:23:32.613Z,17.23
2019-04-06T16:26:15.167Z,17.11
2019-04-06T16:28:59.162Z,17.16
2019-04-06T16:31:31.443Z,17.23
2019-04-06T16:33:59.273Z,17.22
2019-04-06T16:36:30.290Z,17.19
2019-04-06T16:38:57.706Z,17.21
2019-04-06T16:41:35.743Z,17.08
2019-04-06T16:44:07.244Z,17.09
2019-04-06T16:46:49.348Z,17.03
2019-04-06T16:49:16.819Z,17.07
2019-04-06T16:51:49.922Z,17.02
2019-04-06T16:54:23.309Z,16.99
2019-04-06T16:56:50.814Z,17.02
2019-04-06T16:59:20.231Z,17.01
2019-04-06T17:02:04.347Z,17.05
2019-04-06T17:04:32.706Z,17.05
2019-04-06T17:07:01.936Z,17.04
2019-04-06T17:09:34.406Z,17.02
2019-04-06T17:12:04.998Z,17.01
2019-04-06T17:14:32.563Z,17.02
2019-04-06T17:17:15.586Z,17.01
2019-04-06T17:19:47.453Z,17.01
2019-04-06T17:22:33.726Z,17.00
2019-04-06T17:25:04.552Z,16.96
2019-04-06T17:27:37.439Z,16.91
2019-04-06T17:30:06.395Z,16.80
2019-04-06T17:32:38.140Z,16.88
2019-04-06T17:35:07.578Z,16.86
2019-04-06T17:37:36.869Z,16.83
2019-04-06T17:40:20.126Z,16.76
2019-04-06T17:42:52.699Z,16.75
2019-04-06T17:45:30.217Z,16.72
2019-04-06T17:48:12.168Z,16.62
2019-04-06T17:50:41.176Z,16.60
2019-04-06T17:53:11.487Z,16.54
2019-04-06T17:55:38.951Z,16.50
2019-04-06T17:58:11.643Z,16.38
2019-04-06T18:00:43.014Z,16.28
2019-04-06T18:03:10.468Z,16.36
2019-04-06T18:05:43.759Z,16.23
2019-04-06T18:08:13.418Z,16.22
2019-04-06T18:10:43.667Z,16.32
2019-04-06T18:13:16.947Z,16.25
2019-04-06T18:15:44.121Z,16.24
2019-04-06T18:18:11.726Z,16.27
2019-04-06T18:20:39.103Z,16.17
2019-04-06T18:23:06.589Z,16.10
2019-04-06T18:25:35.162Z,16.00
2019-04-06T18:28:02.825Z,16.02
2019-04-06T18:30:30.498Z,15.87
2019-04-06T18:33:03.297Z,15.87
2019-04-06T18:35:29.472Z,15.74
2019-04-06T18:38:00.396Z,15.83
2019-04-06T18:40:27.350Z,15.63
2019-04-06T18:42:55.136Z,15.53
2019-04-06T18:45:22.348Z,15.47
2019-04-06T18:47:49.815Z,15.38
2019-04-06T18:50:17.270Z,15.53
2019-04-06T18:52:45.168Z,15.31
2019-04-06T18:55:12.961Z,15.15
2019-04-06T18:57:40.315Z,14.98
2019-04-06T19:00:11.608Z,15.08
2019-04-06T19:02:37.091Z,15.30
2019-04-06T19:05:04.604Z,15.23
2019-04-06T19:07:32.054Z,15.05
2019-04-06T19:09:59.525Z,15.08
2019-04-06T19:12:26.971Z,14.81
2019-04-06T19:14:55.786Z,14.77
2019-04-06T19:17:22.807Z,14.85
2019-04-06T19:19:50.267Z,14.79
2019-04-06T19:22:17.701Z,14.95
2019-04-06T19:24:45.161Z,14.97
2019-04-06T19:27:12.595Z,14.91
2019-04-06T19:29:40.485Z,15.07
2019-04-06T19:32:07.589Z,14.88
2019-04-06T19:34:35.134Z,14.76
2019-04-06T19:37:02.558Z,14.98
2019-04-06T19:39:29.998Z,14.64
2019-04-06T19:41:57.463Z,14.68
2019-04-06T19:44:26.015Z,14.73
2019-04-06T19:46:53.211Z,14.53
2019-04-06T19:49:20.673Z,14.50
2019-04-06T19:51:49.133Z,14.39
2019-04-06T19:54:16.629Z,14.63
2019-04-06T19:56:44.099Z,14.47
2019-04-06T19:59:12.923Z,14.35
2019-04-06T20:01:39.058Z,14.27
2019-04-06T20:04:06.860Z,14.13
2019-04-06T20:06:34.561Z,13.94
2019-04-06T20:09:01.500Z,13.87
2019-04-06T20:11:28.940Z,13.82
2019-04-06T20:13:56.423Z,13.95
2019-04-06T20:16:23.865Z,14.01
2019-04-06T20:18:51.360Z,14.02
2019-04-06T20:21:19.592Z,14.32
2019-04-06T20:23:47.082Z,14.39
2019-04-06T20:26:14.606Z,14.47
2019-04-06T20:28:42.048Z,14.42
2019-04-06T20:31:09.497Z,14.20
2019-04-06T20:33:47.335Z,14.27
2019-04-06T20:36:04.714Z,14.18
2019-04-06T20:38:32.255Z,13.95
2019-04-06T20:40:59.401Z,13.81
2019-04-06T20:43:26.917Z,13.67
2019-04-06T20:45:54.368Z,13.48
2019-04-06T20:48:21.820Z,13.19
2019-04-06T20:50:49.736Z,13.06
2019-04-06T20:53:17.108Z,13.00
2019-04-06T20:55:45.260Z,13.22
2019-04-06T20:58:12.829Z,13.31
2019-04-06T21:00:40.332Z,12.96
2019-04-06T21:03:07.793Z,13.07
2019-04-06T21:05:35.644Z,13.17
2019-04-06T21:08:02.759Z,13.27
2019-04-06T21:10:30.242Z,13.20
2019-04-06T21:12:57.719Z,13.26
2019-04-06T21:15:25.192Z,13.29
2019-04-06T21:17:53.415Z,13.18
2019-04-06T21:20:20.940Z,13.17
2019-04-06T21:22:48.393Z,13.26
2019-04-06T21:25:15.866Z,13.17
2019-04-06T21:27:44.154Z,13.09
2019-04-06T21:30:10.949Z,13.05
2019-04-06T21:32:38.329Z,13.18
2019-04-06T21:35:05.789Z,13.23
2019-04-06T21:37:33.493Z,13.25
2019-04-06T21:40:01.057Z,13.45
2019-04-06T21:42:28.643Z,13.67
2019-04-06T21:44:55.697Z,13.77
2019-04-06T21:47:23.169Z,13.84
2019-04-06T21:49:51.269Z,13.85
2019-04-06T21:52:18.354Z,13.59
2019-04-06T21:54:45.831Z,13.36
2019-04-06T21:57:14.182Z,13.57
2019-04-06T21:59:41.691Z,13.74
2019-04-06T22:02:08.884Z,13.71
2019-04-06T22:04:36.400Z,13.71
2019-04-06T22:07:04.273Z,13.87
2019-04-06T22:09:32.336Z,13.64
2019-04-06T22:11:59.432Z,13.74
2019-04-06T22:14:26.980Z,13.91
2019-04-06T22:16:54.911Z,14.00
2019-04-06T22:19:22.460Z,14.02
2019-04-06T22:21:49.454Z,14.06
2019-04-06T22:24:17.121Z,14.10
2019-04-06T22:26:44.500Z,14.15
2019-04-06T22:29:11.997Z,14.18
2019-04-06T22:31:39.484Z,14.20
2019-04-06T22:34:07.030Z,14.21
2019-04-06T22:36:35.613Z,14.23
2019-04-06T22:39:03.192Z,14.20
2019-04-06T22:41:31.064Z,14.17
2019-04-06T22:43:57.990Z,13.97
2019-04-06T22:46:25.417Z,14.07
2019-04-06T22:48:52.878Z,13.65
2019-04-06T22:51:20.747Z,13.89
2019-04-06T22:53:47.838Z,14.00
2019-04-06T22:56:15.333Z,14.06
2019-04-06T22:58:42.807Z,14.12
2019-04-06T23:01:10.696Z,14.13
2019-04-06T23:03:41.242Z,13.95
2019-04-06T23:06:10.451Z,14.08
2019-04-06T23:08:38.330Z,13.85
2019-04-06T23:11:06.608Z,13.95
2019-04-06T23:13:34.530Z,13.90
2019-04-06T23:16:02.025Z,13.85
2019-04-06T23:18:29.020Z,13.59
2019-04-06T23:20:56.563Z,13.36
2019-04-06T23:23:24.542Z,13.55
2019-04-06T23:25:51.856Z,13.55
2019-04-06T23:30:52.630Z,13.65
2019-04-06T23:33:21.206Z,13.72
2019-04-06T23:35:49.151Z,13.85
2019-04-06T23:38:16.757Z,13.89
2019-04-06T23:40:44.282Z,13.86
2019-04-06T23:43:11.738Z,13.92
2019-04-06T23:45:39.446Z,14.00
2019-04-06T23:48:07.119Z,14.03
2019-04-06T23:50:34.603Z,14.06
2019-04-06T23:53:01.631Z,14.09
2019-04-06T23:55:30.065Z,14.16
2019-04-06T23:57:57.976Z,14.18
